Time;durP1;ratioP1;P1;durP2;ratioP2;P2;SDS_P1;SDS_P2;PMS_P1;PMS_P2;Temp;Humidity;BMP_temperature;BMP_pressure;BME280_temperature;BME280_humidity;BME280_pressure;Samples;Min_cycle;Max_cycle;Signal;HPM_P1;HPM_P2
2023/08/10 00:01:50;;;;;;;5.57;1.98;;;;;;;27.02;37.83;96585.22;5020893;28;20018;-28
2023/08/10 00:04:16;;;;;;;6.35;1.73;;;;;;;26.91;38.52;96585.41;5020511;28;20037;-28
2023/08/10 00:06:41;;;;;;;4.50;2.03;;;;;;;26.76;38.55;96586.66;5020543;28;20014;-28
2023/08/10 00:09:08;;;;;;;5.32;2.08;;;;;;;26.63;38.71;96585.84;5020619;28;20030;-30
2023/08/10 00:11:34;;;;;;;3.83;1.95;;;;;;;26.68;37.99;96588.56;5021313;28;20462;-28
2023/08/10 00:14:00;;;;;;;6.10;1.58;;;;;;;26.61;38.23;96586.38;5017211;28;20083;-29
2023/08/10 00:16:26;;;;;;;3.78;1.90;;;;;;;26.74;38.29;96582.88;5017665;28;20454;-29
2023/08/10 00:18:51;;;;;;;6.47;1.75;;;;;;;26.95;37.80;96588.66;5019990;28;20440;-28
2023/08/10 00:21:17;;;;;;;3.50;1.70;;;;;;;26.89;37.91;96585.19;5020443;28;20018;-29
2023/08/10 00:23:42;;;;;;;10.50;2.15;;;;;;;26.70;37.85;96588.78;5020356;28;20105;-28
2023/08/10 00:26:08;;;;;;;5.00;1.88;;;;;;;26.80;38.01;96591.91;5020939;28;20466;-30
2023/08/10 00:28:34;;;;;;;3.90;2.00;;;;;;;26.75;38.40;96587.94;5020428;28;20080;-30
2023/08/10 00:30:59;;;;;;;4.18;1.80;;;;;;;26.63;39.00;96588.63;5020835;28;20021;-28
2023/08/10 00:33:25;;;;;;;5.13;1.80;;;;;;;26.69;38.67;96580.97;5024141;28;20432;-28
2023/08/10 00:35:50;;;;;;;2.58;1.60;;;;;;;26.59;38.51;96588.94;5024438;28;20021;-29
2023/08/10 00:38:15;;;;;;;3.10;1.85;;;;;;;26.66;38.72;96582.03;5019557;28;20038;-30
2023/08/10 00:40:41;;;;;;;4.07;1.77;;;;;;;26.57;38.47;96580.41;5027653;28;20044;-28
2023/08/10 00:43:07;;;;;;;6.57;2.10;;;;;;;26.75;38.21;96578.81;5019600;28;20076;-29
2023/08/10 00:45:32;;;;;;;4.03;1.70;;;;;;;26.71;38.01;96579.13;5031615;28;20021;-28
2023/08/10 00:47:58;;;;;;;5.65;2.50;;;;;;;26.83;37.79;96580.44;5024052;28;20067;-29
2023/08/10 00:50:24;;;;;;;4.00;2.10;;;;;;;26.77;37.77;96579.06;5025918;28;20112;-29
2023/08/10 00:52:50;;;;;;;5.75;1.83;;;;;;;26.90;38.42;96581.13;5022417;28;20101;-29
2023/08/10 00:55:16;;;;;;;3.47;1.70;;;;;;;26.78;38.94;96584.09;5023745;28;20025;-30
2023/08/10 00:57:42;;;;;;;5.53;1.58;;;;;;;27.01;38.23;96581.69;5024181;28;20045;-29
2023/08/10 01:00:10;;;;;;;4.45;1.70;;;;;;;26.90;38.40;96575.53;5023753;28;20112;-28
2023/08/10 01:02:37;;;;;;;3.33;1.80;;;;;;;26.82;38.49;96578.22;5026551;28;20474;-30
2023/08/10 01:05:05;;;;;;;2.63;1.42;;;;;;;26.67;38.84;96577.97;5027473;28;20025;-29
2023/08/10 01:07:49;;;;;;;2.92;1.90;;;;;;;26.79;38.76;96573.72;5025807;28;20025;-28
2023/08/10 01:10:17;;;;;;;6.07;1.60;;;;;;;26.79;39.08;96574.47;5023776;28;20014;-29
2023/08/10 01:12:51;;;;;;;3.97;1.55;;;;;;;26.96;38.88;96576.97;5024832;28;20096;-29
2023/08/10 01:15:22;;;;;;;2.88;1.80;;;;;;;26.90;39.19;96572.75;5021966;28;20049;-28
2023/08/10 01:17:52;;;;;;;4.35;1.60;;;;;;;26.68;39.66;96577.44;5023749;28;20028;-30
2023/08/10 01:20:21;;;;;;;4.35;1.70;;;;;;;26.75;39.41;96574.00;5021404;28;20476;-28
2023/08/10 01:23:13;;;;;;;5.03;1.50;;;;;;;26.60;39.67;96573.75;5025594;28;20025;-29
2023/08/10 01:25:42;;;;;;;3.53;1.70;;;;;;;26.45;40.01;96568.69;5023402;28;20040;-30
2023/08/10 01:28:09;;;;;;;6.65;1.88;;;;;;;26.50;40.28;96569.88;5024093;28;20374;-29
2023/08/10 01:30:35;;;;;;;5.80;2.00;;;;;;;26.76;40.35;96569.19;5023766;28;20033;-28
2023/08/10 01:33:00;;;;;;;3.38;1.67;;;;;;;26.77;40.39;96571.47;5023715;28;20029;-29
2023/08/10 01:35:25;;;;;;;4.43;2.03;;;;;;;26.78;41.21;96561.06;5020745;28;20453;-28
2023/08/10 01:37:51;;;;;;;4.15;1.80;;;;;;;26.70;41.12;96572.09;5019224;28;20478;-28
2023/08/10 01:40:17;;;;;;;6.45;1.92;;;;;;;26.66;41.92;96560.50;5030345;28;20398;-28
2023/08/10 01:42:44;;;;;;;4.13;1.95;;;;;;;26.64;41.67;96567.88;5028397;28;20071;-29
2023/08/10 01:45:10;;;;;;;3.63;1.70;;;;;;;26.50;42.09;96563.56;5017870;28;20036;-30
2023/08/10 01:47:53;;;;;;;4.80;1.98;;;;;;;26.73;41.50;96565.44;5022658;28;20029;-28
2023/08/10 01:50:22;;;;;;;5.97;2.20;;;;;;;26.90;41.67;96567.19;5023820;28;20474;-28
2023/08/10 01:52:51;;;;;;;4.88;1.88;;;;;;;26.63;42.13;96578.25;5028030;28;20021;-29
2023/08/10 01:55:19;;;;;;;4.40;2.03;;;;;;;26.55;42.41;96577.38;5024911;28;20460;-28
2023/08/10 01:57:45;;;;;;;2.72;1.50;;;;;;;26.47;42.53;96568.88;5023293;28;20493;-30
2023/08/10 02:00:12;;;;;;;5.63;1.85;;;;;;;26.42;42.90;96563.44;5023056;28;20037;-29
2023/08/10 02:02:38;;;;;;;4.85;2.03;;;;;;;26.42;42.94;96566.22;5023053;28;20108;-28
2023/08/10 02:05:05;;;;;;;4.80;1.73;;;;;;;26.47;42.72;96562.56;5021242;28;20057;-28
2023/08/10 02:07:30;;;;;;;5.43;1.52;;;;;;;26.59;42.96;96566.69;5024149;28;20495;-28
2023/08/10 02:09:57;;;;;;;5.55;1.95;;;;;;;26.68;42.88;96569.09;5022921;28;20049;-29
2023/08/10 02:12:23;;;;;;;4.15;1.98;;;;;;;26.73;43.20;96568.22;5022773;28;20105;-31
2023/08/10 02:14:49;;;;;;;5.18;1.80;;;;;;;26.69;43.10;96572.63;5030254;28;20030;-28
2023/08/10 02:17:16;;;;;;;3.63;2.20;;;;;;;26.77;43.46;96565.13;5023409;28;20026;-28
2023/08/10 02:19:41;;;;;;;3.95;1.80;;;;;;;26.64;43.08;96568.63;5023010;28;20028;-29
2023/08/10 02:22:07;;;;;;;4.25;2.22;;;;;;;26.56;43.70;96567.75;5025419;28;20104;-28
2023/08/10 02:24:32;;;;;;;7.43;1.80;;;;;;;26.50;43.12;96569.13;5019242;28;20026;-30
2023/08/10 02:26:58;;;;;;;5.93;2.15;;;;;;;26.39;43.26;96570.78;5022628;28;20339;-29
2023/08/10 02:29:23;;;;;;;3.50;1.73;;;;;;;26.55;42.71;96571.81;5022657;28;20029;-28
2023/08/10 02:31:49;;;;;;;3.80;1.48;;;;;;;26.40;42.84;96577.88;5022689;28;20393;-29
2023/08/10 02:34:15;;;;;;;5.05;1.83;;;;;;;26.40;43.81;96574.34;5015622;28;20041;-29
2023/08/10 02:36:40;;;;;;;3.80;1.90;;;;;;;26.71;42.84;96567.25;5022528;28;20437;-29
2023/08/10 02:39:05;;;;;;;8.40;1.80;;;;;;;26.72;42.59;96565.97;5022231;28;20025;-29
2023/08/10 02:41:32;;;;;;;6.88;1.73;;;;;;;26.65;42.93;96574.94;5022319;28;20032;-28
2023/08/10 02:43:57;;;;;;;5.88;1.92;;;;;;;26.58;42.10;96572.81;5014992;28;20029;-30
2023/08/10 02:46:23;;;;;;;7.85;2.10;;;;;;;26.58;41.95;96564.47;5022267;28;20389;-29
2023/08/10 02:48:48;;;;;;;4.25;1.67;;;;;;;26.45;42.56;96570.72;5019980;28;20069;-29
2023/08/10 02:51:14;;;;;;;5.22;1.58;;;;;;;26.59;42.44;96575.03;5024393;28;20021;-28
2023/08/10 02:53:39;;;;;;;7.97;2.58;;;;;;;26.40;42.37;96579.88;5020892;28;20038;-29
2023/08/10 02:56:05;;;;;;;4.05;1.92;;;;;;;26.47;41.96;96571.66;5021399;28;20048;-30
2023/08/10 02:58:30;;;;;;;5.03;1.85;;;;;;;26.45;42.35;96571.47;5029092;28;20358;-28
2023/08/10 03:00:56;;;;;;;5.50;1.80;;;;;;;26.59;41.95;96563.16;5014599;28;20030;-28
2023/08/10 03:03:22;;;;;;;4.93;1.60;;;;;;;26.62;41.65;96565.63;5022062;28;20022;-28
2023/08/10 03:05:48;;;;;;;4.20;1.75;;;;;;;26.67;41.97;96564.81;5022121;28;20025;-28
2023/08/10 03:08:13;;;;;;;5.15;1.70;;;;;;;26.63;42.29;96567.13;5021690;28;20030;-28
2023/08/10 03:10:39;;;;;;;6.45;1.65;;;;;;;26.53;42.56;96562.50;5021998;28;20056;-28
2023/08/10 03:13:04;;;;;;;5.32;2.38;;;;;;;26.64;41.97;96560.28;5024651;28;20033;-28
2023/08/10 03:15:31;;;;;;;4.28;2.38;;;;;;;26.71;42.34;96568.00;5024289;28;20147;-29
2023/08/10 03:17:56;;;;;;;4.68;1.90;;;;;;;26.74;42.13;96561.38;5021569;28;20378;-29
2023/08/10 03:20:22;;;;;;;5.22;1.95;;;;;;;26.61;42.79;96564.13;5021367;28;20021;-28
2023/08/10 03:22:47;;;;;;;6.25;2.05;;;;;;;26.59;42.72;96558.34;5022094;28;20038;-29
2023/08/10 03:25:14;;;;;;;4.85;1.95;;;;;;;26.54;42.92;96564.75;5028168;28;20029;-28
2023/08/10 03:27:40;;;;;;;5.68;1.92;;;;;;;26.67;42.77;96570.38;5021284;28;20025;-28
2023/08/10 03:30:06;;;;;;;4.88;1.90;;;;;;;26.58;42.46;96579.09;5028492;28;20014;-28
2023/08/10 03:32:32;;;;;;;7.15;1.40;;;;;;;26.61;42.60;96568.94;5021085;28;20061;-28
2023/08/10 03:34:57;;;;;;;4.82;2.10;;;;;;;26.56;42.81;96570.53;5021439;28;20049;-29
2023/08/10 03:37:23;;;;;;;3.67;1.65;;;;;;;26.57;42.50;96572.06;5021155;28;20020;-29
2023/08/10 03:39:48;;;;;;;4.97;2.20;;;;;;;26.45;42.47;96568.69;5014190;28;20076;-29
2023/08/10 03:42:14;;;;;;;5.63;2.10;;;;;;;26.46;42.29;96569.41;5022219;28;20033;-29
2023/08/10 03:44:39;;;;;;;6.05;1.55;;;;;;;26.38;42.46;96566.50;5019779;28;20473;-28
2023/08/10 03:47:05;;;;;;;5.32;1.70;;;;;;;26.40;42.60;96561.19;5021090;28;20025;-28
2023/08/10 03:49:31;;;;;;;4.72;1.70;;;;;;;26.46;42.02;96577.75;5024075;28;20045;-29
2023/08/10 03:51:56;;;;;;;5.38;1.80;;;;;;;26.42;41.68;96580.13;5018813;28;20033;-28
2023/08/10 03:54:22;;;;;;;8.88;2.05;;;;;;;26.41;41.74;96579.38;5020958;28;20029;-28
2023/08/10 03:56:47;;;;;;;9.93;1.90;;;;;;;26.41;41.45;96576.59;5017845;28;20080;-29
2023/08/10 03:59:13;;;;;;;4.22;1.70;;;;;;;26.41;41.66;96584.19;5023590;28;20026;-29
2023/08/10 04:01:39;;;;;;;5.10;2.10;;;;;;;26.54;40.84;96575.88;5013743;28;20505;-29
2023/08/10 04:04:05;;;;;;;7.03;2.22;;;;;;;26.64;40.56;96573.44;5020501;28;20041;-29
2023/08/10 04:06:31;;;;;;;5.53;2.17;;;;;;;26.57;40.67;96576.88;5020220;28;20032;-28
2023/08/10 04:08:56;;;;;;;6.28;1.95;;;;;;;26.65;40.36;96581.25;5018019;28;20463;-28
2023/08/10 04:11:22;;;;;;;5.38;2.08;;;;;;;26.56;40.17;96578.88;5024292;28;20025;-29
2023/08/10 04:13:47;;;;;;;6.15;1.80;;;;;;;26.34;40.85;96584.78;5020616;28;20022;-28
2023/08/10 04:16:13;;;;;;;5.47;1.80;;;;;;;26.45;40.20;96582.59;5020305;28;20385;-28
2023/08/10 04:18:39;;;;;;;5.80;2.53;;;;;;;26.41;40.12;96584.19;5020485;28;20118;-29
2023/08/10 04:21:05;;;;;;;4.13;1.50;;;;;;;26.47;39.91;96590.38;5020704;28;20069;-29
2023/08/10 04:23:30;;;;;;;3.65;1.80;;;;;;;26.45;39.65;96590.19;5020379;28;20025;-29
2023/08/10 04:25:56;;;;;;;3.95;1.85;;;;;;;26.36;40.16;96588.53;5020567;28;20155;-30
2023/08/10 04:28:22;;;;;;;2.83;1.58;;;;;;;26.49;39.67;96587.84;5020397;28;20013;-29
2023/08/10 04:30:48;;;;;;;5.53;1.40;;;;;;;26.51;39.29;96593.63;5020529;28;20025;-28
2023/08/10 04:33:13;;;;;;;4.07;1.73;;;;;;;26.48;39.58;96594.69;5020280;28;20025;-29
2023/08/10 04:35:39;;;;;;;5.20;1.77;;;;;;;26.47;39.22;96596.69;5019135;28;20025;-28
2023/08/10 04:38:04;;;;;;;4.50;1.70;;;;;;;26.49;39.38;96598.97;5022179;28;20026;-29
2023/08/10 04:40:30;;;;;;;4.20;1.77;;;;;;;26.51;38.86;96599.19;5013369;28;20026;-30
2023/08/10 04:42:58;;;;;;;4.35;1.67;;;;;;;26.45;38.89;96598.53;5027452;28;20108;-30
2023/08/10 04:45:24;;;;;;;6.05;1.60;;;;;;;26.50;38.87;96600.47;5020473;28;20030;-29
2023/08/10 04:47:50;;;;;;;4.75;1.67;;;;;;;26.37;39.15;96590.03;5025977;28;20033;-28
2023/08/10 04:50:15;;;;;;;3.50;1.60;;;;;;;26.56;38.45;96597.59;5021054;28;20092;-28
2023/08/10 04:52:41;;;;;;;4.20;1.80;;;;;;;26.59;38.73;96593.75;5024227;28;20045;-28
2023/08/10 04:55:07;;;;;;;2.92;1.65;;;;;;;26.50;38.72;96594.16;5023739;28;20021;-28
2023/08/10 04:57:33;;;;;;;5.28;1.90;;;;;;;26.60;38.54;96590.44;5015489;28;20033;-30
2023/08/10 04:59:58;;;;;;;3.63;1.55;;;;;;;26.44;38.65;96597.03;5023358;28;20043;-28
2023/08/10 05:02:24;;;;;;;5.20;1.65;;;;;;;26.30;39.10;96595.47;5022704;28;20021;-30
2023/08/10 05:04:50;;;;;;;4.40;1.60;;;;;;;26.38;38.72;96601.91;5020290;28;20044;-28
2023/08/10 05:07:15;;;;;;;4.97;1.90;;;;;;;26.41;39.19;96607.19;5020037;28;20024;-28
2023/08/10 05:09:41;;;;;;;3.22;1.45;;;;;;;26.41;39.23;96606.41;5020624;28;20108;-28
2023/08/10 05:12:07;;;;;;;4.32;1.60;;;;;;;26.41;38.91;96609.94;5020158;28;20026;-28
2023/08/10 05:14:32;;;;;;;4.47;1.73;;;;;;;26.71;38.57;96606.94;5020369;28;20428;-29
2023/08/10 05:16:58;;;;;;;7.93;1.92;;;;;;;26.59;38.23;96608.41;5019778;28;20450;-29
2023/08/10 05:19:23;;;;;;;5.47;1.83;;;;;;;26.38;38.84;96613.03;5023777;28;20029;-29
2023/08/10 05:21:49;;;;;;;4.20;1.63;;;;;;;26.40;38.87;96614.00;5023463;28;20470;-29
2023/08/10 05:24:14;;;;;;;5.80;1.77;;;;;;;26.49;39.24;96612.88;5020038;28;20036;-28
2023/08/10 05:26:40;;;;;;;5.30;1.65;;;;;;;26.52;39.25;96619.41;5019752;28;20033;-28
2023/08/10 05:29:05;;;;;;;3.38;1.48;;;;;;;26.32;39.59;96620.72;5024195;28;20118;-28
2023/08/10 05:31:30;;;;;;;5.78;1.45;;;;;;;26.47;39.03;96620.97;5023744;28;20024;-29
2023/08/10 05:33:56;;;;;;;2.65;1.42;;;;;;;26.39;39.44;96622.88;5023467;28;20470;-29
2023/08/10 05:36:21;;;;;;;2.47;1.20;;;;;;;26.53;38.97;96623.69;5023520;28;20455;-29
2023/08/10 05:38:47;;;;;;;5.25;1.85;;;;;;;26.66;39.31;96632.84;5022373;28;20033;-28
2023/08/10 05:41:13;;;;;;;4.75;1.90;;;;;;;26.68;38.59;96633.06;5023787;28;20026;-28
2023/08/10 05:43:38;;;;;;;2.45;1.38;;;;;;;26.61;38.63;96638.47;5021021;28;20029;-29
2023/08/10 05:46:03;;;;;;;2.95;1.75;;;;;;;26.61;39.07;96635.69;5018617;28;20477;-29
2023/08/10 05:48:29;;;;;;;5.00;1.90;;;;;;;26.64;38.66;96634.66;5025515;28;20112;-29
2023/08/10 05:50:55;;;;;;;4.57;1.77;;;;;;;26.74;38.42;96628.16;5028034;28;20014;-29
2023/08/10 05:53:20;;;;;;;4.28;1.80;;;;;;;26.89;38.66;96627.66;5030307;28;20040;-29
2023/08/10 05:55:46;;;;;;;4.78;2.00;;;;;;;26.69;39.06;96637.34;5016238;28;20429;-29
2023/08/10 05:58:11;;;;;;;5.80;1.77;;;;;;;26.82;38.27;96637.41;5030331;28;20021;-29
2023/08/10 06:00:37;;;;;;;5.95;1.40;;;;;;;26.73;38.33;96646.13;5023684;28;20049;-28
2023/08/10 06:03:05;;;;;;;3.55;1.70;;;;;;;26.70;38.24;96644.44;5028713;28;20080;-28
2023/08/10 06:05:32;;;;;;;3.60;1.48;;;;;;;26.90;38.32;96656.25;5024214;28;20108;-28
2023/08/10 06:07:58;;;;;;;4.82;1.65;;;;;;;26.66;37.94;96646.75;5022995;28;20022;-28
2023/08/10 06:10:25;;;;;;;2.83;1.60;;;;;;;26.87;37.99;96654.53;5022545;28;20013;-29
2023/08/10 06:12:50;;;;;;;4.28;1.80;;;;;;;26.83;38.15;96652.78;5018887;28;20026;-28
2023/08/10 06:15:16;;;;;;;3.58;1.60;;;;;;;26.85;37.63;96660.63;5020540;28;20029;-29
2023/08/10 06:17:41;;;;;;;3.05;1.83;;;;;;;26.90;38.06;96653.47;5023219;28;20382;-29
2023/08/10 06:20:16;;;;;;;6.45;1.60;;;;;;;26.80;38.19;96653.13;5025865;28;20084;-28
2023/08/10 06:22:43;;;;;;;5.40;1.70;;;;;;;26.73;38.60;96648.91;5024937;28;20462;-29
2023/08/10 06:25:09;;;;;;;3.83;1.38;;;;;;;26.87;39.26;96646.19;5015522;28;20049;-28
2023/08/10 06:27:35;;;;;;;3.63;1.67;;;;;;;26.64;40.93;96645.78;5022565;28;20443;-28
2023/08/10 06:30:02;;;;;;;4.95;1.77;;;;;;;26.76;41.03;96647.84;5021738;28;20036;-28
2023/08/10 06:32:28;;;;;;;6.28;1.73;;;;;;;26.71;41.51;96651.47;5020177;28;20432;-29
2023/08/10 06:34:56;;;;;;;5.55;1.77;;;;;;;26.94;41.36;96645.59;5017236;28;20032;-29
2023/08/10 06:37:22;;;;;;;4.82;1.70;;;;;;;26.70;41.78;96652.78;5016926;28;20021;-29
2023/08/10 06:39:48;;;;;;;3.70;1.63;;;;;;;26.74;42.26;96646.88;5018631;28;20026;-28
2023/08/10 06:42:14;;;;;;;6.78;1.90;;;;;;;26.65;42.28;96648.03;5021263;28;20355;-28
2023/08/10 06:44:39;;;;;;;5.00;1.85;;;;;;;26.76;42.38;96653.41;5021515;28;20033;-29
2023/08/10 06:47:05;;;;;;;5.28;2.00;;;;;;;26.64;42.66;96654.88;5020735;28;20025;-28
2023/08/10 06:49:30;;;;;;;6.43;2.45;;;;;;;26.74;42.36;96661.53;5024408;28;20095;-28
2023/08/10 06:51:56;;;;;;;4.45;1.90;;;;;;;26.82;42.03;96656.13;5024815;28;20422;-28
2023/08/10 06:54:21;;;;;;;4.88;2.03;;;;;;;26.98;41.67;96657.91;5023108;28;20022;-28
2023/08/10 06:56:47;;;;;;;5.22;2.28;;;;;;;26.83;42.12;96658.34;5018865;28;20383;-28
2023/08/10 06:59:13;;;;;;;5.57;1.80;;;;;;;27.04;41.67;96649.47;5025312;28;20053;-28
2023/08/10 07:01:38;;;;;;;5.40;2.00;;;;;;;27.03;41.49;96651.50;5029054;28;20034;-29
2023/08/10 07:04:04;;;;;;;4.75;2.00;;;;;;;27.07;40.76;96654.00;5022079;28;20404;-28
2023/08/10 07:06:30;;;;;;;6.00;1.70;;;;;;;27.04;40.50;96650.22;5029003;28;20080;-29
2023/08/10 07:08:55;;;;;;;2.58;1.33;;;;;;;26.97;40.07;96650.09;5017919;28;20033;-29
2023/08/10 07:11:21;;;;;;;5.28;1.30;;;;;;;27.11;39.81;96649.59;5018326;28;20378;-28
2023/08/10 07:13:47;;;;;;;4.07;1.45;;;;;;;27.10;40.25;96650.13;5021778;28;20036;-28
2023/08/10 07:16:13;;;;;;;5.35;1.83;;;;;;;27.22;39.81;96654.22;5021764;28;20021;-29
2023/08/10 07:18:38;;;;;;;5.07;1.60;;;;;;;27.19;40.03;96660.88;5021837;28;20029;-28
2023/08/10 07:21:04;;;;;;;4.78;1.60;;;;;;;27.10;40.24;96650.13;5021679;28;20014;-29
2023/08/10 07:23:30;;;;;;;2.92;1.77;;;;;;;27.28;40.16;96651.34;5021400;28;20021;-28
2023/08/10 07:25:56;;;;;;;4.93;1.90;;;;;;;27.04;41.23;96649.47;5021420;28;20100;-28
2023/08/10 07:28:23;;;;;;;3.72;1.65;;;;;;;27.20;41.19;96658.84;5019077;28;20112;-28
2023/08/10 07:30:50;;;;;;;4.07;1.55;;;;;;;27.28;40.72;96654.88;5023774;28;20097;-27
2023/08/10 07:33:16;;;;;;;3.47;1.50;;;;;;;27.39;40.83;96651.91;5024087;28;20021;-28
2023/08/10 07:35:42;;;;;;;5.32;1.70;;;;;;;27.37;40.92;96662.06;5025411;28;20135;-29
2023/08/10 07:38:08;;;;;;;4.35;2.20;;;;;;;27.33;40.92;96661.63;5021959;28;20466;-28
2023/08/10 07:40:33;;;;;;;3.38;1.77;;;;;;;27.48;40.47;96656.28;5026917;28;20034;-29
2023/08/10 07:42:59;;;;;;;8.25;2.80;;;;;;;27.34;41.09;96660.34;5028349;28;20032;-28
2023/08/10 07:45:25;;;;;;;5.63;1.80;;;;;;;27.37;41.00;96660.03;5023472;28;20022;-28
2023/08/10 07:47:50;;;;;;;4.25;1.48;;;;;;;27.31;41.28;96662.19;5018670;28;20439;-30
2023/08/10 07:50:16;;;;;;;6.18;1.85;;;;;;;27.44;40.98;96662.19;5020829;28;20104;-29
2023/08/10 07:52:41;;;;;;;5.80;1.65;;;;;;;27.45;40.81;96660.88;5024372;28;20013;-29
2023/08/10 07:55:07;;;;;;;6.45;1.90;;;;;;;27.63;40.79;96670.47;5024457;28;20029;-29
2023/08/10 07:57:42;;;;;;;4.72;1.77;;;;;;;27.52;40.82;96663.06;5013620;28;20021;-28
2023/08/10 08:00:10;;;;;;;5.97;1.88;;;;;;;27.69;40.22;96665.56;5021135;28;20117;-28
2023/08/10 08:02:36;;;;;;;5.15;1.58;;;;;;;27.56;40.25;96662.03;5020467;28;20026;-28
2023/08/10 08:05:02;;;;;;;4.80;1.80;;;;;;;27.54;40.70;96668.84;5020825;28;20022;-28
2023/08/10 08:07:30;;;;;;;4.53;1.85;;;;;;;27.53;40.78;96672.91;5020757;28;20071;-28
2023/08/10 08:09:56;;;;;;;4.78;1.60;;;;;;;27.68;40.34;96677.25;5023728;28;20080;-29
2023/08/10 08:12:22;;;;;;;3.10;1.67;;;;;;;27.78;40.10;96683.88;5023795;28;20017;-29
2023/08/10 08:14:47;;;;;;;3.60;1.45;;;;;;;27.67;40.18;96676.50;5021313;28;20033;-29
2023/08/10 08:17:14;;;;;;;8.68;1.98;;;;;;;27.75;40.20;96671.75;5012565;28;20028;-28
2023/08/10 08:19:40;;;;;;;5.28;2.00;;;;;;;27.69;39.74;96678.75;5027849;28;20017;-28
2023/08/10 08:22:06;;;;;;;5.30;1.70;;;;;;;27.66;40.27;96685.38;5020465;28;20435;-30
2023/08/10 08:24:31;;;;;;;6.05;2.30;;;;;;;27.68;39.64;96674.44;5026992;28;20049;-28
2023/08/10 08:26:56;;;;;;;6.93;2.00;;;;;;;27.63;39.96;96670.47;5015372;28;20060;-28
2023/08/10 08:29:22;;;;;;;4.25;2.25;;;;;;;27.77;39.66;96676.81;5019362;28;20022;-28
2023/08/10 08:31:48;;;;;;;8.38;1.92;;;;;;;27.71;39.80;96674.13;5027128;28;20021;-28
2023/08/10 08:34:15;;;;;;;2.88;1.60;;;;;;;27.67;39.40;96675.75;5021071;28;20029;-29
2023/08/10 08:36:41;;;;;;;4.30;1.65;;;;;;;27.60;39.65;96673.56;5020360;28;20022;-28
2023/08/10 08:39:06;;;;;;;4.80;1.55;;;;;;;27.83;39.36;96677.44;5021187;28;20034;-28
2023/08/10 08:41:37;;;;;;;3.78;1.77;;;;;;;27.70;39.23;96674.66;5023370;28;20033;-28
2023/08/10 08:44:07;;;;;;;3.55;1.65;;;;;;;27.66;39.47;96679.81;5022381;28;20030;-30
2023/08/10 08:46:37;;;;;;;5.60;1.83;;;;;;;27.82;39.30;96675.94;5017297;28;20017;-28
2023/08/10 08:49:02;;;;;;;4.57;1.80;;;;;;;27.77;39.40;96668.44;5030219;28;20394;-28
2023/08/10 08:51:28;;;;;;;5.00;1.58;;;;;;;27.72;39.75;96672.81;5022726;28;20022;-28
2023/08/10 08:53:54;;;;;;;4.13;1.90;;;;;;;27.77;39.25;96663.63;5027559;28;20026;-29
2023/08/10 08:56:20;;;;;;;3.03;1.60;;;;;;;27.73;39.39;96679.16;5024472;28;20026;-28
2023/08/10 08:58:45;;;;;;;5.50;1.88;;;;;;;27.85;39.12;96674.88;5030741;28;20035;-28
2023/08/10 09:01:13;;;;;;;5.63;1.92;;;;;;;27.81;38.71;96672.41;5024320;28;20030;-29
2023/08/10 09:03:39;;;;;;;4.60;1.52;;;;;;;27.83;38.58;96677.44;5024262;28;20033;-28
2023/08/10 09:06:04;;;;;;;2.60;1.85;;;;;;;27.77;38.00;96674.78;5017177;28;20018;-28
2023/08/10 09:08:30;;;;;;;4.88;1.90;;;;;;;27.87;38.00;96675.09;5023732;28;20488;-28
2023/08/10 09:10:56;;;;;;;4.05;1.80;;;;;;;27.77;37.69;96674.78;5023747;28;20018;-28
2023/08/10 09:13:23;;;;;;;3.28;1.67;;;;;;;27.92;37.92;96679.06;5023436;28;20569;-29
2023/08/10 09:16:05;;;;;;;6.00;1.60;;;;;;;27.98;37.78;96677.66;5023866;28;20026;-28
2023/08/10 09:18:35;;;;;;;5.80;1.70;;;;;;;27.94;37.81;96671.66;5020729;28;20028;-29
2023/08/10 09:21:30;;;;;;;4.50;1.65;;;;;;;28.00;37.86;96674.31;5016436;28;20055;-28
2023/08/10 09:23:55;;;;;;;5.20;2.03;;;;;;;27.90;37.87;96679.59;5023175;28;20045;-28
2023/08/10 09:26:22;;;;;;;3.85;1.60;;;;;;;27.86;37.69;96679.16;5023980;28;20063;-28
2023/08/10 09:28:49;;;;;;;3.35;1.70;;;;;;;27.91;37.43;96681.09;5023404;28;20029;-29
2023/08/10 09:31:22;;;;;;;3.42;1.70;;;;;;;27.92;37.50;96687.41;5024072;28;20482;-29
2023/08/10 09:33:53;;;;;;;3.42;1.52;;;;;;;28.03;36.89;96682.38;5023243;28;20045;-28
2023/08/10 09:36:22;;;;;;;2.95;1.50;;;;;;;27.95;36.76;96684.28;5026105;28;20029;-30
2023/08/10 09:38:52;;;;;;;3.83;1.52;;;;;;;27.97;37.42;96692.88;5027789;28;20030;-28
2023/08/10 09:41:20;;;;;;;4.93;1.58;;;;;;;28.02;37.01;96686.44;5025341;28;20417;-28
2023/08/10 09:43:47;;;;;;;3.45;1.75;;;;;;;28.04;37.18;96683.88;5020272;28;20026;-29
2023/08/10 09:46:16;;;;;;;3.47;1.60;;;;;;;27.95;37.04;96683.53;5023416;28;20079;-28
2023/08/10 09:48:47;;;;;;;3.40;1.90;;;;;;;27.96;36.38;96685.03;5020558;28;20096;-28
2023/08/10 09:51:13;;;;;;;4.57;1.60;;;;;;;27.97;36.16;96686.53;5018216;28;20458;-29
2023/08/10 09:53:39;;;;;;;3.80;1.70;;;;;;;28.00;36.65;96691.06;5030483;28;20080;-30
2023/08/10 09:56:07;;;;;;;4.28;1.80;;;;;;;28.04;36.04;96695.03;5022527;28;20021;-28
2023/08/10 09:58:33;;;;;;;5.28;1.75;;;;;;;28.04;36.58;96686.66;5023733;28;20068;-28
2023/08/10 10:00:59;;;;;;;4.38;1.60;;;;;;;28.03;36.36;96687.19;5023734;28;20030;-29
2023/08/10 10:03:31;;;;;;;2.90;1.40;;;;;;;28.08;35.78;96686.31;5030147;28;20373;-28
2023/08/10 10:05:57;;;;;;;5.22;1.63;;;;;;;28.04;35.78;96692.25;5022271;28;20026;-29
2023/08/10 10:08:26;;;;;;;3.25;1.65;;;;;;;28.08;35.38;96698.22;5015973;28;20028;-28
2023/08/10 10:10:54;;;;;;;4.68;1.23;;;;;;;28.07;35.16;96691.16;5022910;28;20017;-28
2023/08/10 10:13:21;;;;;;;2.38;1.40;;;;;;;28.13;35.11;96683.44;5029491;28;20013;-29
2023/08/10 10:15:48;;;;;;;5.20;1.83;;;;;;;28.11;35.16;96691.56;5023372;28;20036;-28
2023/08/10 10:18:14;;;;;;;2.65;1.70;;;;;;;28.11;35.17;96694.38;5019992;28;20071;-28
2023/08/10 10:20:43;;;;;;;2.63;1.65;;;;;;;28.10;35.09;96675.38;5017839;28;20034;-29
2023/08/10 10:23:20;;;;;;;3.40;2.00;;;;;;;28.22;35.05;96680.22;5023140;28;20032;-30
2023/08/10 10:26:03;;;;;;;3.95;1.77;;;;;;;28.19;35.05;96675.72;5022364;28;20171;-29
2023/08/10 10:28:31;;;;;;;3.75;1.85;;;;;;;28.21;34.89;96673.13;5022450;28;20466;-29
2023/08/10 10:31:09;;;;;;;3.65;1.80;;;;;;;28.23;34.91;96676.16;5022119;28;20061;-28
2023/08/10 10:33:35;;;;;;;3.72;1.65;;;;;;;28.22;34.13;96666.28;5022441;28;20029;-28
2023/08/10 10:36:14;;;;;;;2.50;1.52;;;;;;;28.20;34.45;96674.44;5021262;28;20021;-28
2023/08/10 10:38:41;;;;;;;3.25;1.52;;;;;;;28.28;34.11;96682.16;5020518;28;20096;-29
2023/08/10 10:41:15;;;;;;;4.03;1.65;;;;;;;28.24;33.44;96677.66;5023638;28;20018;-29
2023/08/10 10:43:40;;;;;;;3.35;1.85;;;;;;;28.24;33.79;96683.22;5018701;28;20028;-28
2023/08/10 10:46:06;;;;;;;3.50;1.55;;;;;;;28.24;33.87;96683.22;5024477;28;20022;-29
2023/08/10 10:48:39;;;;;;;4.13;1.48;;;;;;;28.33;33.67;96684.81;5025642;28;20493;-28
2023/08/10 10:51:05;;;;;;;2.72;1.60;;;;;;;28.34;33.41;96685.56;5025051;28;20075;-30
2023/08/10 10:53:32;;;;;;;4.32;1.80;;;;;;;28.39;33.00;96690.28;5017706;28;20026;-28
2023/08/10 10:55:59;;;;;;;4.30;1.80;;;;;;;28.35;33.21;96681.47;5026887;28;20090;-29
2023/08/10 10:58:29;;;;;;;4.22;1.70;;;;;;;28.34;32.96;96685.56;5022901;28;20079;-28
2023/08/10 11:00:54;;;;;;;5.28;1.50;;;;;;;28.28;33.31;96682.16;5020407;28;20061;-29
2023/08/10 11:03:21;;;;;;;3.45;1.65;;;;;;;28.34;33.24;96680.72;5029054;28;20052;-28
2023/08/10 11:05:46;;;;;;;3.38;1.63;;;;;;;28.32;33.70;96671.41;5024501;28;20017;-28
2023/08/10 11:08:14;;;;;;;3.58;1.80;;;;;;;28.43;33.92;96679.56;5024884;28;20458;-29
2023/08/10 11:10:40;;;;;;;5.22;2.08;;;;;;;28.42;32.77;96670.44;5024427;28;20013;-29
2023/08/10 11:13:08;;;;;;;2.63;1.50;;;;;;;28.38;33.42;96669.25;5025476;28;20020;-28
2023/08/10 11:15:36;;;;;;;3.17;2.22;;;;;;;28.48;33.01;96668.25;5023392;28;20114;-28
2023/08/10 11:18:09;;;;;;;3.05;1.55;;;;;;;28.48;32.77;96670.28;5021513;28;20357;-28
2023/08/10 11:20:35;;;;;;;3.90;1.60;;;;;;;28.46;32.61;96670.09;5021150;28;20160;-28
2023/08/10 11:23:00;;;;;;;3.65;1.60;;;;;;;28.53;32.65;96666.66;5017449;28;20100;-28
2023/08/10 11:25:26;;;;;;;2.58;1.38;;;;;;;28.55;32.82;96666.84;5026696;28;20022;-29
2023/08/10 11:27:53;;;;;;;3.50;1.55;;;;;;;28.59;33.09;96675.63;5021991;28;20476;-28
2023/08/10 11:30:21;;;;;;;2.72;1.48;;;;;;;28.48;33.25;96670.28;5021169;28;20025;-30
2023/08/10 11:32:48;;;;;;;2.35;1.50;;;;;;;28.54;32.98;96670.94;5021182;28;20099;-29